Time;durP1;ratioP1;P1;durP2;ratioP2;P2;SDS_P1;SDS_P2;PMS_P1;PMS_P2;Temp;Humidity;BMP_temperature;BMP_pressure;BME280_temperature;BME280_humidity;BME280_pressure;Samples;Min_cycle;Max_cycle;Signal;HPM_P1;HPM_P2
2021/01/12 00:00:18;;;;;;;71.25;43.03;;;1.20;99.90;;;;;;5119423;27;20211;-79
2021/01/12 00:02:44;;;;;;;67.18;42.25;;;1.10;99.90;;;;;;5138826;27;20155;-79
2021/01/12 00:05:11;;;;;;;75.22;46.38;;;1.20;99.90;;;;;;5138975;27;20190;-79
2021/01/12 00:07:37;;;;;;;70.30;42.35;;;1.20;99.90;;;;;;5137933;27;20175;-79
2021/01/12 00:10:05;;;;;;;84.77;46.63;;;1.10;99.90;;;;;;5138080;27;20183;-79
2021/01/12 00:12:31;;;;;;;80.07;44.00;;;1.10;99.90;;;;;;5138110;27;20967;-79
2021/01/12 00:14:56;;;;;;;77.57;43.20;;;1.10;99.90;;;;;;5119676;27;20243;-79
2021/01/12 00:17:22;;;;;;;75.27;44.43;;;1.10;99.90;;;;;;5138014;27;20179;-79
2021/01/12 00:19:47;;;;;;;75.10;43.73;;;1.10;99.90;;;;;;5138152;27;20190;-79
2021/01/12 00:22:16;;;;;;;82.03;45.20;;;1.00;99.90;;;;;;5119618;27;20631;-79
2021/01/12 00:24:49;;;;;;;79.40;43.92;;;1.10;99.90;;;;;;5138037;27;20187;-79
2021/01/12 00:27:17;;;;;;;75.68;43.90;;;1.10;99.90;;;;;;5137598;27;20179;-79
2021/01/12 00:29:43;;;;;;;75.82;44.75;;;1.20;99.90;;;;;;5138030;27;20194;-79
2021/01/12 00:32:27;;;;;;;78.93;45.58;;;1.20;99.90;;;;;;5119077;27;20197;-79
2021/01/12 00:34:54;;;;;;;81.53;45.40;;;1.10;99.90;;;;;;5130812;27;20211;-79
2021/01/12 00:37:21;;;;;;;76.80;44.03;;;1.10;99.90;;;;;;5117087;28;20192;-79
2021/01/12 00:39:48;;;;;;;75.20;43.17;;;1.20;99.90;;;;;;5115899;27;20259;-79
2021/01/12 00:42:14;;;;;;;84.75;49.08;;;1.10;99.90;;;;;;5136978;27;20199;-79
2021/01/12 00:44:41;;;;;;;85.88;49.78;;;1.00;99.90;;;;;;5137681;27;20194;-80
2021/01/12 00:47:07;;;;;;;81.03;45.78;;;1.10;99.90;;;;;;5119566;27;20179;-80
2021/01/12 00:49:33;;;;;;;79.82;46.22;;;1.00;99.90;;;;;;5116852;27;20223;-79
2021/01/12 00:51:59;;;;;;;90.72;48.53;;;1.00;99.90;;;;;;5118451;27;20187;-79
2021/01/12 00:54:26;;;;;;;72.43;44.73;;;1.10;99.90;;;;;;5137992;27;20215;-79
2021/01/12 00:56:53;;;;;;;98.70;51.35;;;1.10;99.90;;;;;;5137671;27;20601;-79
2021/01/12 00:59:19;;;;;;;90.53;50.28;;;1.10;99.90;;;;;;5137922;27;20262;-80
2021/01/12 01:01:45;;;;;;;96.78;51.63;;;1.10;99.90;;;;;;5137770;27;20171;-80
2021/01/12 01:04:16;;;;;;;92.55;49.92;;;1.20;99.90;;;;;;5119657;27;20195;-80
2021/01/12 01:06:42;;;;;;;85.47;48.80;;;1.10;99.90;;;;;;5138249;27;20658;-80
2021/01/12 01:09:09;;;;;;;96.18;52.33;;;1.10;99.90;;;;;;5119232;27;20712;-80
2021/01/12 01:11:48;;;;;;;90.05;50.25;;;1.10;99.90;;;;;;5119315;27;20178;-79
2021/01/12 01:14:15;;;;;;;95.38;51.83;;;1.20;99.90;;;;;;5137594;27;20552;-79
2021/01/12 01:16:42;;;;;;;90.85;50.15;;;1.10;99.90;;;;;;5119265;28;20266;-79
2021/01/12 01:19:08;;;;;;;89.03;48.35;;;1.10;99.90;;;;;;5137999;27;20643;-79
2021/01/12 01:21:34;;;;;;;89.17;50.93;;;1.00;99.90;;;;;;5137909;27;20197;-80
2021/01/12 01:24:01;;;;;;;81.18;49.15;;;1.10;99.90;;;;;;5138022;27;20408;-80
2021/01/12 01:26:27;;;;;;;90.10;49.70;;;1.20;99.90;;;;;;5119645;28;20353;-80
2021/01/12 01:28:52;;;;;;;82.95;47.58;;;1.20;99.90;;;;;;5137678;28;20652;-79
2021/01/12 01:31:18;;;;;;;84.07;49.67;;;1.10;99.90;;;;;;5118712;28;20199;-80
2021/01/12 01:33:46;;;;;;;85.90;50.50;;;1.10;99.90;;;;;;5118789;28;20224;-80
2021/01/12 01:36:12;;;;;;;84.28;48.33;;;1.20;99.90;;;;;;5118512;28;20260;-79
2021/01/12 01:38:38;;;;;;;79.40;47.30;;;1.20;99.90;;;;;;5125675;27;20627;-79
2021/01/12 01:41:08;;;;;;;93.88;50.03;;;1.30;99.90;;;;;;5122480;27;20183;-79
2021/01/12 01:43:36;;;;;;;87.03;47.70;;;1.30;99.90;;;;;;5140653;27;20170;-79
2021/01/12 01:46:03;;;;;;;83.03;50.08;;;1.30;99.90;;;;;;5122228;27;20236;-79
2021/01/12 01:48:29;;;;;;;82.35;50.10;;;1.20;99.90;;;;;;5140607;27;20552;-79
2021/01/12 01:50:54;;;;;;;81.00;48.27;;;1.30;99.90;;;;;;5122138;27;20201;-79
2021/01/12 01:53:21;;;;;;;77.03;46.53;;;1.30;99.90;;;;;;5121934;27;20194;-79
2021/01/12 01:55:52;;;;;;;78.20;46.65;;;1.20;99.90;;;;;;5140726;27;20634;-79
2021/01/12 01:58:19;;;;;;;79.18;47.80;;;1.20;99.90;;;;;;5140054;27;20220;-79
2021/01/12 02:00:46;;;;;;;76.88;45.22;;;1.00;99.90;;;;;;5140793;27;20167;-79
2021/01/12 02:03:33;;;;;;;78.45;48.10;;;1.00;99.90;;;;;;5139723;27;20171;-79
2021/01/12 02:06:11;;;;;;;88.43;46.05;;;1.10;99.90;;;;;;5140813;27;20525;-79
2021/01/12 02:08:41;;;;;;;69.45;44.53;;;1.10;99.90;;;;;;5121964;27;20183;-79
2021/01/12 02:11:08;;;;;;;77.25;47.67;;;1.20;99.90;;;;;;5141179;27;20211;-80
2021/01/12 02:13:35;;;;;;;83.60;46.85;;;1.20;99.90;;;;;;5122453;27;20179;-79
2021/01/12 02:16:01;;;;;;;85.05;46.00;;;1.20;99.90;;;;;;5122406;27;20215;-80
2021/01/12 02:18:33;;;;;;;70.50;43.95;;;1.20;99.90;;;;;;5141080;27;20191;-79
2021/01/12 02:21:04;;;;;;;69.00;43.22;;;1.20;99.90;;;;;;5140445;27;20159;-80
2021/01/12 02:23:42;;;;;;;78.30;45.67;;;1.20;99.90;;;;;;5140582;27;20167;-79
2021/01/12 02:26:08;;;;;;;74.35;43.85;;;1.20;99.90;;;;;;5141888;27;20198;-80
2021/01/12 02:28:33;;;;;;;68.03;44.50;;;1.10;99.90;;;;;;5140676;27;20642;-80
2021/01/12 02:30:59;;;;;;;67.63;41.17;;;1.00;99.90;;;;;;5140552;27;20194;-80
2021/01/12 02:33:25;;;;;;;72.30;42.00;;;1.00;99.90;;;;;;5139922;27;20175;-79
2021/01/12 02:35:54;;;;;;;72.60;43.60;;;1.00;99.90;;;;;;5125502;27;20213;-80
2021/01/12 02:38:19;;;;;;;68.82;40.63;;;1.10;99.90;;;;;;5124828;27;20172;-80
2021/01/12 02:40:45;;;;;;;70.10;43.20;;;1.20;99.90;;;;;;5140851;27;20191;-80
2021/01/12 02:43:11;;;;;;;68.77;42.03;;;1.10;99.90;;;;;;5121677;27;20877;-80
2021/01/12 02:45:36;;;;;;;71.60;43.43;;;1.10;99.90;;;;;;5141323;27;20183;-80
2021/01/12 02:48:02;;;;;;;72.77;44.97;;;1.00;99.90;;;;;;5140183;27;20199;-80
2021/01/12 02:50:28;;;;;;;81.80;47.03;;;1.00;99.90;;;;;;5140440;27;20191;-80
2021/01/12 02:52:53;;;;;;;79.23;47.20;;;1.10;99.90;;;;;;5139513;27;20572;-79
2021/01/12 02:55:19;;;;;;;74.90;46.93;;;1.10;99.90;;;;;;5140656;27;20207;-79
2021/01/12 02:57:45;;;;;;;78.60;47.80;;;1.10;99.90;;;;;;5139859;27;20231;-79
2021/01/12 03:00:13;;;;;;;78.10;46.30;;;1.00;99.90;;;;;;5140380;27;20187;-80
2021/01/12 03:02:39;;;;;;;80.80;44.67;;;1.00;99.90;;;;;;5120936;27;20252;-80
2021/01/12 03:05:06;;;;;;;81.57;46.23;;;1.00;99.90;;;;;;5121357;27;20594;-80
2021/01/12 03:07:32;;;;;;;81.78;47.45;;;0.90;99.90;;;;;;5139352;27;20232;-79
2021/01/12 03:09:57;;;;;;;81.43;46.50;;;0.90;99.90;;;;;;5139193;27;20179;-79
2021/01/12 03:12:24;;;;;;;81.80;47.23;;;0.90;99.90;;;;;;5120901;27;20450;-80
2021/01/12 03:14:50;;;;;;;82.90;47.30;;;1.00;99.90;;;;;;5139123;27;20953;-79
2021/01/12 03:17:15;;;;;;;83.82;47.10;;;1.00;99.90;;;;;;5138734;27;20235;-79
2021/01/12 03:19:42;;;;;;;73.53;44.87;;;1.00;99.90;;;;;;5120494;27;20183;-79
2021/01/12 03:22:09;;;;;;;68.57;43.20;;;1.00;99.90;;;;;;5138794;27;20214;-79
2021/01/12 03:24:35;;;;;;;80.50;47.13;;;0.90;99.90;;;;;;5138570;27;20646;-79
2021/01/12 03:27:01;;;;;;;86.32;45.00;;;0.90;99.90;;;;;;5138488;27;20179;-79
2021/01/12 03:29:26;;;;;;;71.97;45.80;;;0.90;99.90;;;;;;5138774;27;20184;-79
2021/01/12 03:31:52;;;;;;;87.27;45.70;;;1.00;99.90;;;;;;5138682;27;20231;-79
2021/01/12 03:34:18;;;;;;;86.43;48.77;;;0.90;99.90;;;;;;5118222;27;20218;-79
2021/01/12 03:36:43;;;;;;;83.33;49.20;;;0.90;99.90;;;;;;5117648;28;20211;-79
2021/01/12 03:39:09;;;;;;;79.93;47.10;;;1.00;99.90;;;;;;5111732;27;20252;-79
2021/01/12 03:41:35;;;;;;;82.70;48.13;;;1.00;99.90;;;;;;5119899;27;20495;-79
2021/01/12 03:44:01;;;;;;;86.80;48.13;;;1.10;99.90;;;;;;5119929;27;20252;-78
2021/01/12 03:46:27;;;;;;;72.57;46.20;;;1.10;99.90;;;;;;5138220;27;20171;-78
2021/01/12 03:48:53;;;;;;;77.25;45.90;;;1.10;99.90;;;;;;5119421;27;20222;-79
2021/01/12 03:51:19;;;;;;;82.43;47.00;;;1.10;99.90;;;;;;5138330;27;20275;-79
2021/01/12 03:53:45;;;;;;;81.53;46.08;;;1.00;99.90;;;;;;5120031;27;20185;-79
2021/01/12 03:56:13;;;;;;;77.90;45.27;;;1.00;99.90;;;;;;5119974;27;20298;-79
2021/01/12 03:58:40;;;;;;;74.60;45.97;;;1.00;99.90;;;;;;5119386;27;20190;-79
2021/01/12 04:01:06;;;;;;;76.35;45.50;;;1.00;99.90;;;;;;5138236;27;20171;-80
2021/01/12 04:03:32;;;;;;;87.63;47.50;;;1.00;99.90;;;;;;5120485;27;20183;-79
2021/01/12 04:06:01;;;;;;;76.97;44.53;;;1.00;99.90;;;;;;5139562;27;20186;-79
2021/01/12 04:08:27;;;;;;;96.78;53.28;;;1.10;99.90;;;;;;5139234;27;20459;-79
2021/01/12 04:10:52;;;;;;;86.50;47.97;;;1.10;99.90;;;;;;5139860;27;20187;-80
2021/01/12 04:13:18;;;;;;;77.43;46.80;;;1.10;99.90;;;;;;5139165;27;20182;-80
2021/01/12 04:15:44;;;;;;;80.93;45.80;;;1.00;99.90;;;;;;5140023;27;21030;-80
2021/01/12 04:18:09;;;;;;;78.77;47.40;;;1.00;99.90;;;;;;5138484;27;20378;-80
2021/01/12 04:20:35;;;;;;;77.20;48.60;;;0.90;99.90;;;;;;5120334;27;20187;-79
2021/01/12 04:23:01;;;;;;;87.00;52.00;;;1.00;99.90;;;;;;5120881;27;20179;-80
2021/01/12 04:25:27;;;;;;;88.37;50.10;;;1.00;99.90;;;;;;5139507;27;20190;-79
2021/01/12 04:27:52;;;;;;;94.67;52.73;;;0.90;99.90;;;;;;5119813;27;20194;-80
2021/01/12 04:30:18;;;;;;;94.67;50.87;;;1.00;99.90;;;;;;5120164;27;20262;-80
2021/01/12 04:32:44;;;;;;;82.60;47.57;;;1.00;99.90;;;;;;5138377;27;20183;-80
2021/01/12 04:35:10;;;;;;;78.07;44.13;;;0.90;99.90;;;;;;5129253;27;20245;-79
2021/01/12 04:37:35;;;;;;;84.37;45.40;;;0.90;99.90;;;;;;5117679;28;20231;-80
2021/01/12 04:40:02;;;;;;;78.30;45.97;;;0.90;99.90;;;;;;5137273;27;20748;-80
2021/01/12 04:42:32;;;;;;;71.68;42.75;;;1.00;99.90;;;;;;5119902;27;20411;-80
2021/01/12 04:44:59;;;;;;;78.50;44.08;;;1.20;99.90;;;;;;5139471;27;20247;-80
2021/01/12 04:47:26;;;;;;;78.30;44.03;;;1.20;99.90;;;;;;5138162;27;20175;-80
2021/01/12 04:49:52;;;;;;;74.60;43.97;;;1.30;99.90;;;;;;5138304;27;20701;-79
2021/01/12 04:52:17;;;;;;;81.30;42.63;;;1.20;99.90;;;;;;5137995;27;20183;-80
2021/01/12 04:54:43;;;;;;;73.07;40.40;;;1.30;99.90;;;;;;5120006;27;20563;-79
2021/01/12 04:57:12;;;;;;;79.07;42.40;;;1.30;99.90;;;;;;5120499;27;20190;-80
2021/01/12 04:59:38;;;;;;;82.32;43.92;;;1.30;99.90;;;;;;5138560;27;20260;-80
2021/01/12 05:02:04;;;;;;;78.20;44.97;;;1.30;99.90;;;;;;5119322;27;20183;-80
2021/01/12 05:04:32;;;;;;;95.70;50.00;;;1.30;99.90;;;;;;5139007;27;20454;-79
2021/01/12 05:06:58;;;;;;;91.60;49.90;;;1.30;99.90;;;;;;5119729;27;20404;-79
2021/01/12 05:09:26;;;;;;;89.75;49.78;;;1.40;99.90;;;;;;5120266;27;20187;-80
2021/01/12 05:11:56;;;;;;;79.35;45.67;;;1.30;99.90;;;;;;5115455;28;20691;-80
2021/01/12 05:14:25;;;;;;;106.97;52.40;;;1.30;99.90;;;;;;5115620;28;20211;-80
2021/01/12 05:16:54;;;;;;;106.22;51.60;;;1.30;99.90;;;;;;5119791;27;20187;-80
2021/01/12 05:19:26;;;;;;;84.05;46.60;;;1.40;99.90;;;;;;5137774;27;20258;-80
2021/01/12 05:21:54;;;;;;;80.15;44.05;;;1.40;99.90;;;;;;5119665;27;20179;-80
2021/01/12 05:24:21;;;;;;;79.75;45.03;;;1.40;99.90;;;;;;5119283;27;20214;-79
2021/01/12 05:26:48;;;;;;;71.93;41.97;;;1.30;99.90;;;;;;5137589;27;20647;-79
2021/01/12 05:29:15;;;;;;;72.18;41.28;;;1.60;99.90;;;;;;5138211;28;20224;-80
2021/01/12 05:31:45;;;;;;;69.97;40.83;;;2.00;99.90;;;;;;5137838;28;20183;-79
2021/01/12 05:34:12;;;;;;;66.43;38.63;;;2.50;99.90;;;;;;5136306;27;20590;-80
2021/01/12 05:36:50;;;;;;;77.18;42.85;;;2.80;98.90;;;;;;5116532;28;20180;-80
2021/01/12 05:39:18;;;;;;;79.18;41.75;;;3.30;98.00;;;;;;5111038;28;20274;-80
2021/01/12 05:41:46;;;;;;;66.40;40.20;;;3.60;97.20;;;;;;5137651;28;20175;-80
2021/01/12 05:44:22;;;;;;;67.35;38.00;;;3.80;96.50;;;;;;5137451;28;20283;-80
2021/01/12 05:46:53;;;;;;;65.25;38.42;;;4.00;95.20;;;;;;5136799;27;20174;-79
2021/01/12 05:49:21;;;;;;;79.90;43.20;;;3.00;97.40;;;;;;5136438;28;20214;-79
2021/01/12 05:51:48;;;;;;;72.53;42.70;;;2.50;98.60;;;;;;5118344;28;20206;-80
2021/01/12 05:54:25;;;;;;;71.25;42.50;;;2.10;99.80;;;;;;5119044;28;20191;-80
2021/01/12 05:56:59;;;;;;;79.35;44.15;;;1.70;99.90;;;;;;5118949;28;20183;-79
2021/01/12 05:59:28;;;;;;;73.00;45.72;;;1.40;99.90;;;;;;5118637;28;20198;-79
2021/01/12 06:01:54;;;;;;;93.47;52.50;;;1.30;99.90;;;;;;5136623;28;20194;-80
2021/01/12 06:04:20;;;;;;;109.80;58.92;;;1.20;99.90;;;;;;5137131;28;20193;-80
2021/01/12 06:06:54;;;;;;;123.67;70.20;;;1.10;99.90;;;;;;5136972;28;20581;-79
2021/01/12 06:09:21;;;;;;;107.03;64.13;;;1.00;99.90;;;;;;5118036;28;20427;-79
2021/01/12 06:11:49;;;;;;;99.85;60.35;;;0.90;99.90;;;;;;5136462;28;20186;-79
2021/01/12 06:14:24;;;;;;;91.28;55.25;;;1.00;99.90;;;;;;5136121;28;20211;-79
2021/01/12 06:16:51;;;;;;;91.95;51.47;;;1.00;99.90;;;;;;5136410;28;20155;-79
2021/01/12 06:19:21;;;;;;;94.38;53.67;;;1.00;99.90;;;;;;5136568;28;20666;-79
2021/01/12 06:21:55;;;;;;;132.35;85.63;;;1.10;99.90;;;;;;5136650;28;20238;-80
2021/01/12 06:24:35;;;;;;;84.82;50.72;;;1.10;99.90;;;;;;5137838;27;20265;-79
2021/01/12 06:27:07;;;;;;;94.95;51.50;;;1.00;99.90;;;;;;5140375;27;20167;-80
2021/01/12 06:29:34;;;;;;;83.03;47.03;;;1.00;99.90;;;;;;5139959;27;20240;-79
2021/01/12 06:32:00;;;;;;;77.80;42.30;;;1.00;99.90;;;;;;5140744;27;20203;-79
2021/01/12 06:34:26;;;;;;;73.63;43.53;;;1.00;99.90;;;;;;5136998;27;20741;-80
2021/01/12 06:36:56;;;;;;;74.80;43.67;;;1.00;99.90;;;;;;5119992;28;20258;-80
2021/01/12 06:39:26;;;;;;;80.80;46.00;;;1.00;99.90;;;;;;5115007;27;20267;-79
2021/01/12 06:41:51;;;;;;;75.88;44.88;;;1.00;99.90;;;;;;5121719;27;20235;-79
2021/01/12 06:44:26;;;;;;;68.53;41.80;;;1.10;99.90;;;;;;5140275;27;20183;-80
2021/01/12 06:46:54;;;;;;;75.93;45.25;;;1.00;99.90;;;;;;5140254;27;20163;-79
2021/01/12 06:49:23;;;;;;;75.38;44.08;;;1.10;99.90;;;;;;5140077;27;20219;-80
2021/01/12 06:52:09;;;;;;;78.05;43.60;;;1.00;99.90;;;;;;5121695;27;20639;-80
2021/01/12 06:54:43;;;;;;;76.93;45.30;;;1.00;99.90;;;;;;5140418;27;20203;-80
2021/01/12 06:57:10;;;;;;;73.40;44.53;;;1.00;99.90;;;;;;5121285;27;20179;-80
2021/01/12 06:59:41;;;;;;;71.78;43.42;;;1.00;99.90;;;;;;5126629;27;20571;-80
2021/01/12 07:02:28;;;;;;;77.05;44.95;;;1.00;99.90;;;;;;5123016;27;20180;-80
2021/01/12 07:05:01;;;;;;;82.43;47.42;;;1.00;99.90;;;;;;5122939;27;20283;-80
2021/01/12 07:07:29;;;;;;;80.45;48.33;;;1.10;99.90;;;;;;5119203;28;20184;-80
2021/01/12 07:10:04;;;;;;;87.15;51.03;;;1.10;99.90;;;;;;5099059;28;20188;-80
2021/01/12 07:12:33;;;;;;;79.00;48.25;;;1.00;99.90;;;;;;5118851;27;20545;-80
2021/01/12 07:15:09;;;;;;;80.78;46.92;;;1.00;99.90;;;;;;5121011;27;20212;-80
2021/01/12 07:17:47;;;;;;;95.05;50.88;;;1.00;99.90;;;;;;5109885;27;20179;-79
2021/01/12 07:20:35;;;;;;;92.38;53.47;;;1.00;99.90;;;;;;5106146;28;20196;-80
2021/01/12 07:23:03;;;;;;;91.35;53.15;;;1.10;99.90;;;;;;5139217;27;20215;-80
2021/01/12 07:25:30;;;;;;;93.80;53.08;;;1.10;99.90;;;;;;5123478;27;20192;-80
2021/01/12 07:28:06;;;;;;;90.50;50.90;;;1.20;99.90;;;;;;5102097;28;20192;-81
2021/01/12 07:30:35;;;;;;;101.90;55.55;;;1.10;99.90;;;;;;5109733;27;20260;-80
2021/01/12 07:33:05;;;;;;;95.57;51.22;;;1.00;99.90;;;;;;5123185;27;20610;-80
2021/01/12 07:35:33;;;;;;;91.05;51.63;;;1.20;99.90;;;;;;5124436;27;20216;-80
2021/01/12 07:37:59;;;;;;;95.05;53.30;;;1.30;99.90;;;;;;5119872;27;20258;-80
2021/01/12 07:40:25;;;;;;;95.37;53.07;;;1.20;99.90;;;;;;5120839;27;20207;-80
2021/01/12 07:42:54;;;;;;;102.25;54.40;;;1.30;99.90;;;;;;5127054;27;20382;-80
2021/01/12 07:45:22;;;;;;;102.38;55.65;;;1.30;99.90;;;;;;5106042;28;20264;-80
2021/01/12 07:47:53;;;;;;;126.40;69.03;;;1.30;99.90;;;;;;5102868;28;20640;-80
2021/01/12 07:50:24;;;;;;;121.55;69.90;;;1.40;99.90;;;;;;5101151;28;20260;-80
2021/01/12 07:52:50;;;;;;;217.32;117.80;;;1.40;99.90;;;;;;5101143;28;20171;-80
2021/01/12 07:55:16;;;;;;;110.47;60.95;;;1.30;99.90;;;;;;5100389;28;20216;-80
2021/01/12 07:57:42;;;;;;;106.82;57.90;;;1.30;99.90;;;;;;5100266;28;20176;-80
2021/01/12 08:00:10;;;;;;;109.13;61.90;;;1.40;99.90;;;;;;5099320;28;20216;-80
2021/01/12 08:02:38;;;;;;;119.32;73.15;;;1.40;99.90;;;;;;5100757;28;20185;-80
2021/01/12 08:05:06;;;;;;;185.43;124.05;;;1.40;99.90;;;;;;5100842;28;20254;-80
2021/01/12 08:07:33;;;;;;;126.57;71.80;;;1.40;99.90;;;;;;5121600;28;20623;-80
2021/01/12 08:09:59;;;;;;;131.95;76.63;;;1.40;99.90;;;;;;5111263;28;20187;-80
2021/01/12 08:12:25;;;;;;;128.90;67.93;;;1.40;99.90;;;;;;5099635;28;20192;-80
2021/01/12 08:14:53;;;;;;;106.10;65.00;;;1.50;99.90;;;;;;5099941;28;20579;-80
2021/01/12 08:17:20;;;;;;;111.85;60.58;;;1.50;99.90;;;;;;5105010;28;20247;-80
2021/01/12 08:19:47;;;;;;;88.50;54.53;;;1.60;99.90;;;;;;5102474;28;20663;-80
2021/01/12 08:22:16;;;;;;;92.25;53.13;;;1.50;99.90;;;;;;5100293;28;20617;-80
2021/01/12 08:24:44;;;;;;;112.03;69.05;;;1.50;99.90;;;;;;5099102;28;20196;-80
2021/01/12 08:27:10;;;;;;;129.43;73.57;;;1.40;99.90;;;;;;5101786;28;20263;-80
2021/01/12 08:29:36;;;;;;;109.82;65.95;;;1.50;99.90;;;;;;5101219;28;20203;-80
2021/01/12 08:32:06;;;;;;;94.07;52.27;;;1.50;99.90;;;;;;5100212;28;20196;-80
2021/01/12 08:34:58;;;;;;;87.72;52.95;;;1.40;99.90;;;;;;5082139;28;20300;-80
2021/01/12 08:37:25;;;;;;;96.45;54.83;;;1.30;99.90;;;;;;5084045;28;20213;-81
2021/01/12 08:39:52;;;;;;;88.68;50.42;;;1.40;99.90;;;;;;5080619;28;20562;-80
2021/01/12 08:42:19;;;;;;;91.07;53.17;;;1.50;99.90;;;;;;5082993;28;20248;-80
2021/01/12 08:44:45;;;;;;;94.07;55.83;;;1.60;99.90;;;;;;5101676;28;20196;-80
2021/01/12 08:47:11;;;;;;;87.47;52.80;;;1.50;99.90;;;;;;5103139;28;20185;-80
2021/01/12 08:49:37;;;;;;;97.90;54.50;;;1.40;99.90;;;;;;5098334;28;20220;-80
2021/01/12 08:52:05;;;;;;;99.10;57.28;;;1.40;99.90;;;;;;5093328;27;20212;-81
2021/01/12 08:54:31;;;;;;;97.35;55.03;;;1.50;99.90;;;;;;5128280;27;20276;-80
2021/01/12 08:57:04;;;;;;;106.30;57.08;;;1.40;99.90;;;;;;5105050;28;20601;-79
2021/01/12 08:59:33;;;;;;;101.60;55.60;;;1.40;99.90;;;;;;5094390;28;20204;-80
2021/01/12 09:02:05;;;;;;;104.90;55.70;;;1.50;99.90;;;;;;5141162;27;20190;-80
2021/01/12 09:04:31;;;;;;;97.68;55.15;;;1.40;99.90;;;;;;5117382;28;20678;-80
2021/01/12 09:07:18;;;;;;;107.10;61.40;;;1.50;99.90;;;;;;5138208;27;20187;-80
2021/01/12 09:10:24;;;;;;;116.78;58.83;;;1.50;99.90;;;;;;5121450;28;20192;-80
2021/01/12 09:12:55;;;;;;;103.45;56.95;;;1.50;99.90;;;;;;5114650;28;20192;-80
2021/01/12 09:15:26;;;;;;;104.35;58.92;;;1.60;99.90;;;;;;5123015;28;20207;-81
2021/01/12 09:18:04;;;;;;;112.43;64.10;;;1.60;99.90;;;;;;5097376;28;20188;-80
2021/01/12 09:20:29;;;;;;;116.68;66.07;;;1.60;99.90;;;;;;5100434;28;20190;-80
2021/01/12 09:23:10;;;;;;;127.60;69.23;;;1.50;99.90;;;;;;5104129;28;20215;-79
2021/01/12 09:25:41;;;;;;;114.72;67.18;;;1.50;99.90;;;;;;5102677;28;20227;-79
2021/01/12 09:28:12;;;;;;;124.93;63.50;;;1.60;99.90;;;;;;5116957;28;20217;-80
2021/01/12 09:30:38;;;;;;;120.78;65.57;;;1.60;99.90;;;;;;5130616;28;20187;-80
2021/01/12 09:33:04;;;;;;;120.00;64.60;;;1.60;99.90;;;;;;5106430;28;20202;-80
2021/01/12 09:35:31;;;;;;;109.20;62.87;;;1.70;99.90;;;;;;5121371;28;20551;-79
2021/01/12 09:38:01;;;;;;;106.28;58.65;;;1.60;99.90;;;;;;5098983;28;20432;-80
2021/01/12 09:40:27;;;;;;;87.97;52.97;;;1.60;99.90;;;;;;5124088;28;20186;-81
2021/01/12 09:42:53;;;;;;;100.28;53.95;;;1.50;99.90;;;;;;5121407;28;20196;-81
2021/01/12 09:45:19;;;;;;;91.43;50.60;;;1.60;99.90;;;;;;5125359;28;20201;-80
2021/01/12 09:47:45;;;;;;;85.80;48.47;;;1.70;99.90;;;;;;5097588;28;20466;-79
2021/01/12 09:50:12;;;;;;;83.53;50.80;;;1.70;99.90;;;;;;5124172;28;20475;-79
2021/01/12 09:52:37;;;;;;;79.43;46.78;;;1.70;99.80;;;;;;5125919;28;20267;-80
2021/01/12 09:55:04;;;;;;;89.47;49.50;;;1.70;99.60;;;;;;5105094;28;20647;-81
2021/01/12 09:57:30;;;;;;;83.30;49.63;;;1.70;99.90;;;;;;5127116;28;20176;-79
2021/01/12 09:59:55;;;;;;;94.47;52.87;;;1.70;99.90;;;;;;5114253;28;20209;-80
2021/01/12 10:05:43;;;;;;;84.32;49.05;;;1.70;99.90;;;;;;5139897;27;20197;-80
2021/01/12 10:08:09;;;;;;;90.23;51.30;;;1.80;99.90;;;;;;5117697;28;20204;-81
2021/01/12 10:13:56;;;;;;;85.60;49.17;;;1.80;99.90;;;;;;5124498;28;20753;-79
2021/01/12 10:16:24;;;;;;;79.87;46.67;;;1.80;99.90;;;;;;5114266;28;20223;-80
2021/01/12 10:18:51;;;;;;;91.10;46.83;;;1.80;99.90;;;;;;5114800;28;20196;-80
2021/01/12 10:21:17;;;;;;;86.50;47.13;;;1.90;99.90;;;;;;5113615;28;20654;-80
2021/01/12 10:23:44;;;;;;;73.00;44.90;;;1.90;99.90;;;;;;5106881;27;20188;-80
2021/01/12 10:26:14;;;;;;;91.28;50.75;;;1.80;99.90;;;;;;5112668;28;20653;-80
2021/01/12 10:28:40;;;;;;;83.85;44.72;;;1.80;99.90;;;;;;5140977;27;20194;-80
2021/01/12 10:31:10;;;;;;;80.50;47.97;;;1.90;99.90;;;;;;5130608;28;20248;-82
2021/01/12 10:33:36;;;;;;;77.88;46.20;;;1.90;99.90;;;;;;5133525;28;20249;-80
2021/01/12 10:36:02;;;;;;;87.40;51.08;;;1.90;99.90;;;;;;5134269;27;20216;-81
2021/01/12 10:38:29;;;;;;;174.80;106.80;;;1.80;99.90;;;;;;5112409;28;20169;-81
2021/01/12 10:40:54;;;;;;;101.60;56.67;;;1.90;99.90;;;;;;5102239;28;20412;-81
2021/01/12 10:43:20;;;;;;;90.17;50.30;;;1.90;99.90;;;;;;5132810;28;20271;-80
2021/01/12 10:45:46;;;;;;;86.53;51.75;;;1.90;99.90;;;;;;5128061;27;20204;-81
2021/01/12 10:48:12;;;;;;;93.00;50.10;;;2.00;99.90;;;;;;5117272;28;20211;-81
2021/01/12 10:50:43;;;;;;;87.10;48.50;;;2.00;99.90;;;;;;5114126;28;20200;-80
2021/01/12 10:53:09;;;;;;;80.53;47.05;;;2.00;99.90;;;;;;5135366;27;20205;-81
2021/01/12 10:55:34;;;;;;;90.90;52.30;;;2.00;99.90;;;;;;5132969;28;20219;-80
2021/01/12 10:58:00;;;;;;;77.67;47.83;;;2.00;99.90;;;;;;5106477;28;20247;-81
2021/01/12 11:00:28;;;;;;;81.83;46.17;;;2.00;99.90;;;;;;5139276;27;20171;-81
2021/01/12 11:02:55;;;;;;;77.35;45.67;;;2.10;99.90;;;;;;5114681;28;20219;-81
2021/01/12 11:05:21;;;;;;;82.95;49.60;;;2.20;99.90;;;;;;5103766;28;20202;-81
2021/01/12 11:07:47;;;;;;;73.30;45.97;;;2.30;99.90;;;;;;5131597;28;20196;-81
2021/01/12 11:10:13;;;;;;;83.53;45.47;;;2.30;99.90;;;;;;5129689;27;20607;-81
2021/01/12 11:12:39;;;;;;;93.78;54.47;;;2.30;99.90;;;;;;5117830;28;20728;-82
2021/01/12 11:15:07;;;;;;;82.13;50.40;;;2.20;99.90;;;;;;5102836;28;20259;-79
2021/01/12 11:17:33;;;;;;;73.78;41.63;;;2.30;99.90;;;;;;5126581;28;20455;-79
2021/01/12 11:20:00;;;;;;;76.22;43.95;;;2.30;99.30;;;;;;5127365;27;20187;-79
2021/01/12 11:22:29;;;;;;;79.25;48.35;;;2.40;99.40;;;;;;5129001;27;20671;-78
2021/01/12 11:25:04;;;;;;;69.05;44.00;;;2.40;99.90;;;;;;5127230;28;20251;-80
2021/01/12 11:27:32;;;;;;;66.85;41.78;;;2.50;99.20;;;;;;5106695;28;20180;-80
2021/01/12 11:29:58;;;;;;;78.68;43.72;;;2.50;98.80;;;;;;5105054;27;20195;-80
2021/01/12 11:32:24;;;;;;;70.82;43.90;;;2.40;99.10;;;;;;5128034;28;20647;-81
2021/01/12 11:34:50;;;;;;;75.53;45.83;;;2.50;99.10;;;;;;5110843;28;20249;-80
2021/01/12 11:37:16;;;;;;;75.37;44.67;;;2.50;98.90;;;;;;5106478;28;20189;-80
2021/01/12 11:46:31;;;;;;;79.65;46.67;;;2.50;99.00;;;;;;5123078;28;20190;-80
2021/01/12 11:48:58;;;;;;;72.72;43.45;;;2.50;99.60;;;;;;5110133;28;20226;-81
2021/01/12 11:51:36;;;;;;;77.38;44.25;;;2.40;98.80;;;;;;5129534;28;20195;-81
2021/01/12 11:54:02;;;;;;;73.80;43.25;;;2.40;99.30;;;;;;5104206;28;20176;-81
2021/01/12 11:59:50;;;;;;;68.03;40.70;;;2.30;98.70;;;;;;5131326;27;20185;-80
2021/01/12 12:05:38;;;;;;;93.18;51.35;;;2.50;99.50;;;;;;5131415;28;20200;-80
2021/01/12 12:08:04;;;;;;;86.97;50.03;;;2.50;99.70;;;;;;5098196;28;20653;-80
2021/01/12 12:10:30;;;;;;;73.63;44.13;;;2.60;99.80;;;;;;5104100;28;20197;-80
2021/01/12 12:12:55;;;;;;;71.37;40.90;;;2.50;99.10;;;;;;5133617;28;20819;-80
2021/01/12 12:15:21;;;;;;;80.30;45.90;;;2.50;99.40;;;;;;5113368;28;20216;-80
2021/01/12 12:17:47;;;;;;;68.45;44.40;;;2.60;99.90;;;;;;5115267;28;20221;-80
2021/01/12 12:24:28;;;;;;;73.63;40.60;;;2.60;99.00;;;;;;5131923;28;20186;-81
2021/01/12 12:26:56;;;;;;;81.50;46.92;;;2.60;98.50;;;;;;5137034;27;20191;-81
2021/01/12 12:29:22;;;;;;;61.20;39.67;;;2.70;98.60;;;;;;5103416;28;20195;-80
2021/01/12 12:31:53;;;;;;;75.03;42.73;;;2.60;97.60;;;;;;5125577;27;20187;-80
2021/01/12 12:34:19;;;;;;;71.47;39.95;;;2.60;97.60;;;;;;5135311;27;20171;-81
2021/01/12 12:36:45;;;;;;;75.47;44.83;;;2.60;98.60;;;;;;5112165;28;20184;-81
2021/01/12 12:39:11;;;;;;;71.03;42.70;;;2.70;98.40;;;;;;5113038;28;20237;-80
2021/01/12 12:44:59;;;;;;;101.03;52.95;;;2.70;99.40;;;;;;5126102;28;20267;-80
2021/01/12 12:47:27;;;;;;;91.47;48.97;;;2.60;98.70;;;;;;5132408;28;20646;-79
2021/01/12 12:49:57;;;;;;;114.32;59.20;;;2.50;98.70;;;;;;5129154;28;20224;-79
2021/01/12 12:56:04;;;;;;;97.65;49.67;;;2.50;98.90;;;;;;5137596;27;20248;-80
2021/01/12 13:01:53;;;;;;;91.22;52.88;;;2.50;98.80;;;;;;5130414;28;20240;-80
2021/01/12 13:04:55;;;;;;;90.40;49.95;;;2.50;97.90;;;;;;5129148;28;20760;-80
2021/01/12 13:10:42;;;;;;;86.55;50.30;;;2.50;98.40;;;;;;5049538;28;20240;-79
2021/01/12 13:13:11;;;;;;;99.07;57.13;;;2.50;98.40;;;;;;5048345;28;20190;-79
2021/01/12 13:15:38;;;;;;;103.45;58.33;;;2.50;98.60;;;;;;5091773;28;20223;-79
2021/01/12 13:18:11;;;;;;;94.93;52.80;;;2.60;97.90;;;;;;5110255;28;20645;-79